Tiempo atmosférico en la estación meteorológica de Valencia Aeropuerto, València/Valencia (69 m.)



Fecha
DESCASC
Temp. máxima en grados centígrados (hora)
DESCASC
Temp. mínima en grados centígrados (hora)
DESCASC
Temp. media en grados centígrados
DESCASC
Racha de viento máxima en m/sg (hora)
DESCASC
Velocidad máxima media en intervalos de 10 minutos(hora)
DESCASC
Precipitaciones diarias en mm
DESCASC
Precipitaciones de 00:00 a 06:00 en mm
DESCASC
Precipitaciones de 06:00 a 12:00 en mm
DESCASC
Precipitaciones de 12:00 a 18:00 en mm
DESCASC
Precipitaciones de 18:00 a 24:00 en mm
DESCASC
13-10-2019 27.3 (14:20) 18.1 (07:50) 22.7 7.22 (16:20) 5 (17:40) 0 0 0 0 0
12-10-2019 26.6 (14:40) 19.4 (07:40) 23 9.17 (17:40) 5.56 (17:00) 0 0 0 0 0
10-10-2019 23.5 (15:10) 19.5 (00:00) 21.5 9.17 (13:20) 5 (05:50) 0 0 0 0 0
09-10-2019 27.4 (14:30) 16.8 (00:00) 22.1 8.33 (16:40) 5.28 (16:40) 0 0 0 0 0
08-10-2019 27.8 (14:30) 15.1 (00:00) 21.4 9.72 (22:10) 6.39 (16:00) 0 0 0 0 0
07-10-2019 28.7 (12:50) 16.4 (00:00) 22.6 10.28 (13:50) 7.22 (13:50) 0 0 0 0 0
06-10-2019 27.9 (14:10) 15.4 (00:00) 21.6 9.17 (17:50) 5.28 (15:50) 0 0 0 0 0
05-10-2019 28.1 (13:50) 14.8 (08:00) 21.5 9.17 (21:00) 6.11 (15:20) 0 0 0 0 0
04-10-2019 30.7 (14:00) 13.5 (00:00) 22.1 9.72 (20:50) 6.11 (17:10) 0 0 0 0 0
03-10-2019 28.2 (15:20) 14.1 (00:00) 21.2 9.17 (01:00) 5.83 (01:00) 0 0 0 0 0
02-10-2019 30 (16:00) 16.6 (00:00) 23.3 13.89 (23:00) 8.89 (23:00) 0 0 0 0 0
01-10-2019 -- (--) -- (--) -- 10.28 (16:50) 7.22 (16:50) 0 0 0 0 0
30-09-2019 27.7 (13:30) 15.9 (00:00) 21.8 8.33 (13:30) 5.28 (13:40) 0 0 0 0 0
29-09-2019 31 (14:10) 17 (00:00) 24 7.78 (15:00) 5.56 (15:00) 0 0 0 0 0
28-09-2019 27.9 (14:00) 17.2 (00:00) 22.6 8.33 (14:10) 5.28 (14:00) 0 0 0 0 0
27-09-2019 30 (13:20) 18 (00:00) 24 -- (--) -- (--) 0 0 0 0 0
26-09-2019 29.3 (14:20) 17.9 (00:00) 23.6 8.89 (15:50) 6.11 (15:50) 0 0 0 0 0
25-09-2019 29.3 (12:10) 20.2 (00:00) 24.8 10.28 (13:40) 6.94 (14:20) 0 0 0 0 0
24-09-2019 35 (16:10) 16.2 (00:00) 25.6 11.67 (17:30) 8.89 (18:30) 0 0 0 0 0
23-09-2019 27.7 (15:30) 16.1 (00:00) 21.9 6.67 (15:40) 4.72 (00:30) 0 0 0 0 0
22-09-2019 31.7 (16:00) 20.2 (00:00) 26 12.78 (15:10) 8.61 (19:40) 0 0 0 0 0
21-09-2019 29.2 (16:20) 20.6 (00:00) 24.9 7.22 (00:10) 4.44 (00:40) 0.2 0 0.2 0 0
20-09-2019 26.6 (15:00) 20.2 (00:00) 23.4 8.89 (14:30) 6.39 (16:00) 0 0 0 0 0
19-09-2019 27.5 (15:20) 17.6 (00:00) 22.6 9.17 (15:40) 5.28 (16:10) 0 0 0 0 0
18-09-2019 30.3 (14:40) 17.8 (00:00) 24 8.33 (16:30) 5 (18:00) 0 0 0 0 0
17-09-2019 29.4 (14:10) 19.5 (00:00) 24.4 8.89 (21:40) 6.11 (21:40) 0 0 0 0 0
16-09-2019 28.1 (16:00) 21.9 (00:00) 25 9.72 (16:00) 5 (17:00) 0 0 0 0 0
15-09-2019 27.3 (14:00) 22.2 (00:00) 24.8 12.5 (10:40) 8.89 (11:20) 0 0 0 0 0

Gráficas

Temp. máximas Temp. mínimas Temp. medias Precipitaciones Rachas de viento máximas Velocidades máximas media en intervalos de 10 minutos

Datos horarios

Fecha y hora oficial Temperatura (ºC) Velocidad del viento (km/h) Dirección del viento Racha (km/h) Dirección de racha Precipitación (mm) Presión (hPa) Tendencia (hPa) Humedad (%)
2019-10-14 23:00:00 20.6 14 Oeste 26 Oeste 0 1005.8 2 66
2019-10-14 22:00:00 22.2 13 Sudoeste 22 Sudoeste 0 1004.6 0.9 62
2019-10-14 21:00:00 21.6 13 Sur 22 Sudeste 0 1004.5 0.7 86
2019-10-14 20:00:00 21.9 12 Sudeste 18 Sudeste 0 1003.8 -0.1 86
2019-10-14 19:00:00 23 13 Sudeste 22 Sur 0 1003.7 -1 76
2019-10-14 18:00:00 23.8 13 Sur 21 Sudeste 0 1003.8 -1.5 71
2019-10-14 17:00:00 24.5 11 Sudeste 21 Sudeste 0 1003.9 -2.2 72
2019-10-14 16:00:00 24.3 11 Sur 18 Sur 0 1004.7 -2.9 72
2019-10-14 15:00:00 24.3 3 Sur 18 Este 0 1005.3 -2.1 70
2019-10-14 14:00:00 24 3 Norte 15 Norte 0 1006.1 -1.4 71
2019-10-14 13:00:00 23.4 4 Oeste 26 Este 0.1 1007.6 0.6 73
2019-10-14 12:00:00 23.1 9 Oeste 22 Noroeste 0 1007.4 0.4 75
2019-10-14 11:00:00 22.5 14 Norte 22 Nordeste -- 1007.5 0.9 80
2019-10-14 10:00:00 20.7 7 Noroeste 13 Noroeste -- 1007 0.1 85
2019-10-14 09:00:00 19.2 8 Noroeste 13 Norte 0 1007 -0.2 89
2019-10-14 08:00:00 18.7 10 Norte 15 Norte 0 1006.6 -1 91
2019-10-14 07:00:00 18.8 6 Noroeste 15 Noroeste 0 1006.9 -1.2 92
2019-10-14 06:00:00 18.3 9 Noroeste 15 Noroeste 0 1007.2 -1.5 95
2019-10-14 05:00:00 19 7 Noroeste 11 Noroeste 0 1007.6 -1.7 94
2019-10-14 04:00:00 19.1 6 Oeste 9 Noroeste 0 1008.1 -1.4 94
2019-10-14 03:00:00 19.3 8 Norte -- -- 0 1008.7 -1.1 93
2019-10-14 02:00:00 19.8 8 Noroeste 11 Norte 0 1009.3 -0.6 94
2019-10-14 01:00:00 20.6 7 Noroeste 9 Noroeste 0 1009.5 -0.4 89
2019-10-14 00:00:00 21.7 -- -- -- -- 0 1009.8 0.2 86
2019-10-13 23:00:00 22.2 7 Nordeste 24 Nordeste 0 1009.9 0.6 85
2019-10-13 22:00:00 22.5 8 Nordeste 17 Nordeste 0 1009.9 1.2 84
2019-10-13 21:00:00 23 9 Este 13 Este 0 1009.6 1 83
2019-10-13 20:00:00 23.2 10 Sudeste 21 Sudeste 0 1009.3 1.1 83
2019-10-13 19:00:00 24 15 Sudeste 22 Sudeste 0 1008.7 0.2 79
2019-10-13 18:00:00 25.2 18 Sudeste 24 Sudeste 0 1008.6 -0.2 68
2019-10-13 17:00:00 26.1 18 Este 26 Sudeste 0 1008.2 -1.2 61
2019-10-13 16:00:00 26.9 14 Este 24 Este 0 1008.5 -1.8 58
2019-10-13 15:00:00 27 10 Este 24 Este 0 1008.8 -1.9 58
2019-10-13 14:00:00 26.7 7 Sudeste 15 Sur 0 1009.4 -1.1 58
2019-10-13 13:00:00 26.4 6 Sudeste 13 Sur 0 1010.3 0 59
2019-10-13 12:00:00 25.1 4 Sudoeste 11 Sur 0 1010.7 0.6 68
2019-10-13 11:00:00 23.4 7 Noroeste 13 Noroeste 0 1010.5 1 76
2019-10-13 10:00:00 21.1 11 Noroeste 15 Noroeste 0 1010.3 0.7 84
2019-10-13 09:00:00 19 7 Oeste 11 Oeste 0 1010.1 0.8 94
2019-10-13 08:00:00 18.2 6 Oeste 9 Oeste 0 1009.5 -0.1 96
2019-10-13 07:00:00 18.6 8 Noroeste 11 Noroeste 0 1009.6 -0.3 96
2019-10-13 06:00:00 19 7 Noroeste 11 Oeste 0 1009.3 -0.9 96
2019-10-13 05:00:00 19.6 9 Noroeste 13 Noroeste 0 1009.6 -0.9 96
2019-10-13 04:00:00 19.6 6 Oeste 9 Oeste 0 1009.9 -0.8 96
2019-10-13 03:00:00 20.2 3 Noroeste 8 Noroeste 0 1010.2 -0.9 94
2019-10-13 02:00:00 21 6 Noroeste 9 Norte 0 1010.5 -0.1 92
2019-10-13 01:00:00 21.6 8 Noroeste 13 Noroeste 0 1010.7 0.3 91
2019-10-13 00:00:00 20.8 8 Oeste 11 Oeste 0 1011.1 0.9 93
2019-10-12 23:00:00 21.6 5 Sur 18 Norte 0 1010.6 0.5 87
2019-10-12 22:00:00 22.6 0 Calma 22 Este 0 1010.4 0.6 87
2019-10-12 21:00:00 22.8 7 Este 26 Nordeste 0 1010.2 0.2 86
2019-10-12 20:00:00 23.1 9 Este 24 Nordeste 0 1010.1 -0.1 82
2019-10-12 19:00:00 23.5 12 Este 24 Este 0 1009.8 -0.8 79
2019-10-12 18:00:00 24 18 Este 33 Este 0 1010 -0.9 79
2019-10-12 17:00:00 24.9 20 Este 30 Nordeste 0 1010.2 -1.3 73
2019-10-12 16:00:00 25.1 16 Este 28 Este 0 1010.6 -1.7 72
2019-10-12 15:00:00 25.5 18 Este 26 Este 0 1010.9 -1.6 68
2019-10-12 14:00:00 26 14 Este 26 Este 0 1011.5 -1 63
2019-10-12 13:00:00 25.9 14 Este 30 Este 0 1012.3 0 62
2019-10-12 12:00:00 24.4 16 Este 24 Este 0 1012.5 0.6 72
2019-10-12 11:00:00 23.7 13 Este 22 Nordeste 0 1012.5 1 76
2019-10-12 10:00:00 21.4 8 Noroeste 15 Norte 0 1012.3 0.9 82
2019-10-12 09:00:00 19.9 8 Noroeste 13 Norte 0 1011.9 0.6 88
2019-10-12 08:00:00 19.4 8 Noroeste 15 Noroeste 0 1011.5 0 90
2019-10-12 07:00:00 19.6 7 Noroeste 13 Noroeste 0 1011.4 -0.5 90
2019-10-12 06:00:00 19.9 10 Noroeste 17 Noroeste 0 1011.3 -1.1 90
2019-10-12 05:00:00 19.9 13 Noroeste 17 Noroeste 0 1011.5 -1.2 91
2019-10-12 04:00:00 19.9 10 Noroeste 13 Noroeste 0 1011.9 -1 92
2019-10-12 03:00:00 20 8 Noroeste 9 Noroeste 0 1012.4 -1 91
2019-10-12 02:00:00 20.9 5 Noroeste 9 Norte 0 1012.7 -0.4 88
2019-10-12 01:00:00 20.9 7 Noroeste 13 Norte 0 1012.9 0.1 88
2019-10-12 00:00:00 21.5 8 Noroeste 11 Noroeste 0 1013.4 1.1 85
2019-10-11 23:00:00 22.3 8 Este 11 Este 0 1013.1 1 83
2019-10-11 22:00:00 22.2 6 Sudeste 11 Sudeste 0 1012.8 0.8 81
2019-10-11 21:00:00 22.3 8 Este 13 Sudeste 0 1012.3 0.2 81
2019-10-11 20:00:00 22.6 11 Sudeste 22 Sudeste 0 1012.1 -0.2 79
2019-10-11 19:00:00 23.2 14 Sudeste 24 Sudeste 0 1012 -0.5 77
2019-10-11 18:00:00 24.4 17 Sudeste 30 Sudeste 0 1012.1 -0.9 71
2019-10-11 17:00:00 24.7 19 Sudeste 28 Sudeste 0 1012.3 -1.5 69
2019-10-11 16:00:00 25.8 18 Este 26 Este 0 1012.5 -2.3 63
2019-10-11 15:00:00 26.5 16 Sudeste 26 Este 0 1013 -2.2 61
2019-10-11 14:00:00 26.9 14 Sudeste 24 Este 0 1013.8 -1.6 57
2019-10-11 13:00:00 26 6 Sur 21 Sudeste 0 1014.8 -0.2 59
2019-10-11 12:00:00 25.5 9 Sur 18 Sur 0 1015.2 0.7 61
2019-10-11 11:00:00 24.8 5 Sur 11 Sur 0 1015.4 1.2 63
2019-10-11 10:00:00 23.4 0 Calma 8 Oeste 0 1015 0.9 73
2019-10-11 09:00:00 21.1 3 Oeste 5 Oeste 0 1014.5 0.3 83
2019-10-11 08:00:00 20.5 0 Calma 8 Oeste 0 1014.2 0.1 85
2019-10-11 07:00:00 20.8 6 Oeste 9 Sudoeste 0 1014.1 -0.1 83
2019-10-11 06:00:00 20.7 4 Oeste 11 Noroeste 0 1014.2 -0.4 82
2019-10-11 05:00:00 20.7 8 Noroeste 11 Noroeste 0 1014.1 -0.7 80
2019-10-11 04:00:00 20.8 9 Noroeste 13 Noroeste 0 1014.2 -0.8 80
2019-10-11 03:00:00 20.9 9 Norte 13 Norte 0 1014.6 -0.6 79
2019-10-11 02:00:00 21 9 Noroeste 11 Noroeste 0 1014.8 -0.4 78
2019-10-11 01:00:00 21.3 5 Norte 13 Nordeste 0 1015 0.2 79
2019-10-11 00:00:00 21.4 7 Norte 11 Nordeste 0 1015.2 0.7 79
2019-10-10 23:00:00 21.3 7 Nordeste 22 Nordeste 0 1015.2 1.1 79
2019-10-10 22:00:00 21.5 9 Nordeste 30 Nordeste 0 1014.8 0.9 76
2019-10-10 21:00:00 21.5 9 Este 21 Nordeste 0 1014.5 0.8 73
2019-10-10 20:00:00 21.6 12 Nordeste 32 Este 0 1014.1 0.1 73
2019-10-10 19:00:00 22 12 Este 18 Este 0 1013.9 -0.4 74
2019-10-10 18:00:00 22.6 14 Este 22 Este 0 1013.7 -0.7 66
2019-10-10 17:00:00 23.1 14 Este 24 Este 0 1014 -0.9 63
2019-10-10 16:00:00 23 14 Este 22 Este 0 1014.3 -0.9 58
2019-10-10 15:00:00 23.3 15 Nordeste 26 Este 0 1014.4 -0.9 58
2019-10-10 14:00:00 22.9 13 Norte 33 Nordeste 0 1014.9 -0.3 55
2019-10-10 13:00:00 22.6 16 Nordeste 22 Nordeste 0 1015.2 0.7 60
2019-10-10 12:00:00 21.9 13 Nordeste 26 Nordeste 0 1015.3 1.5 62
2019-10-10 11:00:00 21.3 9 Nordeste 28 Nordeste 0 1015.2 2 66
2019-10-10 10:00:00 21 18 Nordeste 26 Este 0 1014.5 1.6 73
2019-10-10 09:00:00 20.3 11 Nordeste 24 Nordeste 0 1013.8 1 80
2019-10-10 08:00:00 19.9 14 Nordeste 28 Nordeste 0 1013.2 0.6 83
2019-10-10 07:00:00 19.8 15 Nordeste 30 Norte 0 1012.9 0.4 87
2019-10-10 06:00:00 19.8 16 Nordeste 30 Nordeste 0 1012.8 0 91
2019-10-10 05:00:00 20.2 5 Noroeste -- -- 0 1012.6 -0.2 91
2019-10-10 04:00:00 20.2 4 Noroeste 8 Noroeste 0 1012.5 -0.3 90
2019-10-10 03:00:00 19.6 5 Noroeste 5 Noroeste 0 1012.8 0.3 91
2019-10-10 02:00:00 19.9 2 Noroeste 8 Norte 0 1012.8 0.8 90
2019-10-10 01:00:00 20.1 5 Norte 11 Norte 0 1012.8 1.3 89
2019-10-10 00:00:00 21.9 5 Norte 13 Norte 0 1012.5 1.7 82
2019-10-09 23:00:00 22 7 Este 13 Norte 0 1012 1.9 82
2019-10-09 22:00:00 22.5 9 Este 17 Este 0 1011.5 2.5 80
2019-10-09 21:00:00 22.7 11 Este 26 Este 0 1010.8 2.3 79
2019-10-09 20:00:00 23.1 13 Este 28 Este 0 1010.1 1.7 78
2019-10-09 19:00:00 24.1 17 Este 28 Este 0 1009 0.4 72
2019-10-09 18:00:00 25.7 15 Este 28 Este 0 1008.5 -0.1 63
2019-10-09 17:00:00 26.4 18 Este 30 Este 0 1008.4 -0.4 61
2019-10-09 16:00:00 27 15 Este 26 Este 0 1008.6 -1.2 55
2019-10-09 15:00:00 27.1 15 Este 24 Este 0 1008.6 -1.8 56
2019-10-09 14:00:00 26.9 11 Este 21 Nordeste 0 1008.8 -1.4 59
2019-10-09 13:00:00 26 9 Este 26 Nordeste 0 1009.8 -0.3 62
2019-10-09 12:00:00 25.4 5 Este 11 Nordeste 0 1010.4 1.1 66
2019-10-09 11:00:00 22.8 0 Calma 17 Noroeste 0 1010.2 1.2 75
2019-10-09 10:00:00 20.1 9 Noroeste 13 Norte 0 1010.1 1.5 82
2019-10-09 09:00:00 17.6 8 Oeste 11 Noroeste 0 1009.3 0.8 91
2019-10-09 08:00:00 17 8 Noroeste 13 Noroeste 0 1009 0.4 92
2019-10-09 07:00:00 17.4 6 Noroeste 11 Noroeste 0 1008.6 0 93
2019-10-09 06:00:00 17.6 5 Noroeste 5 Noroeste 0 1008.5 -0.6 91
2019-10-09 05:00:00 18.3 2 Sudoeste 8 Sur 0 1008.6 -0.7 90
2019-10-09 04:00:00 18.2 6 Noroeste 11 Noroeste 0 1008.6 -1.1 91
2019-10-09 03:00:00 18.5 9 Noroeste 11 Noroeste 0 1009.1 -0.6 91
2019-10-09 02:00:00 19.2 0 Calma 5 Oeste 0 1009.3 -0.1 89
2019-10-09 01:00:00 20 4 Sudoeste 9 Noroeste 0 1009.7 0.2 87
2019-10-09 00:00:00 20.6 7 Noroeste 17 Noroeste 0 1009.7 0.3 85
2019-10-08 23:00:00 21.7 12 Noroeste 35 Este 0 1009.4 0.2 83
2019-10-08 22:00:00 22.9 10 Norte 28 Nordeste 0 1009.5 0.5 80
2019-10-08 21:00:00 23.9 9 Norte 22 Norte 0 1009.4 0.2 73
2019-10-08 20:00:00 24.1 11 Este 17 Este 0 1009.2 -0.2 70
2019-10-08 19:00:00 25.3 15 Este 24 Sudeste 0 1009 -1 65
2019-10-08 18:00:00 26.3 17 Sudeste 22 Este 0 1009.2 -1.1 56
2019-10-08 17:00:00 26.5 18 Este 28 Sudeste 0 1009.4 -1.8 56
2019-10-08 16:00:00 26.5 23 Este 30 Este 0 1010 -2.4 59
2019-10-08 15:00:00 26.7 20 Sudeste 33 Sudeste 0 1010.3 -2.7 56
2019-10-08 14:00:00 27 12 Este 18 Sudeste 0 1011.2 -2 46
2019-10-08 13:00:00 26.6 8 Sudeste 26 Sudeste 0 1012.4 -0.6 48
2019-10-08 12:00:00 25.1 4 Sur 11 Sur 0 1013 0.4 52
2019-10-08 11:00:00 22.5 5 Noroeste 11 Noroeste 0 1013.2 0.9 60
2019-10-08 10:00:00 19.4 8 Oeste 11 Oeste 0 1013 1.2 73
2019-10-08 09:00:00 16.3 5 Oeste 11 Oeste 0 1012.6 1.1 85
2019-10-08 08:00:00 15.6 7 Noroeste 13 Noroeste 0 1012.3 0.7 86
2019-10-08 07:00:00 15.2 4 Oeste 13 Oeste 0 1011.8 0.1 88
2019-10-08 06:00:00 15.4 7 Oeste 15 Oeste 0 1011.5 -0.5 88
2019-10-08 05:00:00 15.9 6 Noroeste 9 Noroeste 0 1011.6 0 87
2019-10-08 04:00:00 16 6 Oeste 11 Oeste 0 1011.7 0 86
2019-10-08 03:00:00 16.5 6 Oeste 9 Oeste 0 1012 0.5 85
2019-10-08 02:00:00 17 6 Noroeste 15 Noroeste 0 1011.6 0 83
2019-10-08 01:00:00 17.5 5 Noroeste 9 Noroeste 0 1011.7 0.6 81
2019-10-08 00:00:00 18.2 4 Oeste 11 Oeste 0 1011.5 0.8 78
2019-10-07 23:00:00 18.7 5 Noroeste 9 Noroeste 0 1011.6 1.4 75
2019-10-07 22:00:00 19.7 6 Oeste 11 Noroeste 0 1011.1 1.5 70
2019-10-07 21:00:00 21.7 0 Calma 11 Este 0 1010.7 1.6 64
2019-10-07 20:00:00 22.2 8 Este 21 Nordeste 0 1010.2 1.3 57
2019-10-07 19:00:00 23.2 10 Este 24 Este 0 1009.6 0.6 54
2019-10-07 18:00:00 23.2 14 Este 24 Este 0 1009.1 -0.2 54
2019-10-07 17:00:00 23.8 13 Este 26 Sudeste 0 1008.9 -0.6 50
2019-10-07 16:00:00 24.6 17 Este 30 Este 0 1009 0 46
2019-10-07 15:00:00 24.8 18 Este 35 Este 0 1009.3 0.3 47
2019-10-07 14:00:00 25.6 25 Este 37 Este 0 1009.5 0.3 46
2019-10-07 13:00:00 28.2 13 Este 26 Este 0 1009 0.5 29
2019-10-07 12:00:00 26.8 5 Sudoeste 17 Sudeste 0 1009 0.5 34
2019-10-07 11:00:00 24.3 8 Oeste 13 Oeste 0 1009.2 1.5 43
2019-10-07 10:00:00 20.9 3 Sudoeste 13 Oeste 0 1008.5 0.6 66
2019-10-07 09:00:00 18 6 Sudoeste 9 Oeste 0 1008.5 0.4 78
2019-10-07 08:00:00 16.4 9 Oeste 21 Oeste 0 1007.7 -0.9 84
2019-10-07 07:00:00 18.3 12 Noroeste 24 Noroeste 0 1007.9 -0.9 76
2019-10-07 06:00:00 16.8 5 Noroeste 15 Noroeste 0 1008.1 -1.6 97
2019-10-07 05:00:00 17.8 4 Noroeste 13 Oeste 0 1008.6 -1.2 96
2019-10-07 04:00:00 18.1 6 Oeste 13 Noroeste 0 1008.8 -1.5 95
2019-10-07 03:00:00 18.6 5 Noroeste 11 Noroeste 0 1009.7 -0.4 95
2019-10-07 02:00:00 19.4 8 Oeste 11 Norte 0 1009.8 -0.2 92
2019-10-07 01:00:00 20 12 Noroeste 18 Noroeste 0 1010.3 0.2 93
2019-10-07 00:00:00 20.3 7 Noroeste 13 Noroeste 0 1010.1 0.5 92
2019-10-06 23:00:00 20.9 11 Oeste 13 Oeste 0 1010 0.8 90
2019-10-06 22:00:00 22.1 8 Noroeste 13 Noroeste 0 1010.1 1.4 87
2019-10-06 21:00:00 22.5 7 Nordeste 13 Nordeste 0 1009.6 0.7 85
2019-10-06 20:00:00 22.8 5 Sudeste 15 Sudeste 0 1009.2 0 81
2019-10-06 19:00:00 23.9 13 Sudeste 21 Este 0 1008.7 -0.7 74
2019-10-06 18:00:00 25.4 14 Este 33 Nordeste 0 1008.9 -1 68
2019-10-06 17:00:00 25.8 13 Este 24 Sudeste 0 1009.2 -1.3 64
2019-10-06 16:00:00 26.2 17 Sudeste 26 Sudeste 0 1009.4 -1.7 60
2019-10-06 15:00:00 27.8 13 Este 21 Este 0 1009.9 -1.4 51
2019-10-06 14:00:00 27.4 10 Este 17 Este 0 1010.5 -1 50
2019-10-06 13:00:00 26.5 9 Sudeste 15 Sudeste 0 1011.1 0.1 50
2019-10-06 12:00:00 25.7 4 Este 9 Este 0 1011.3 1.2 56
2019-10-06 11:00:00 22.4 6 Noroeste 18 Noroeste 0 1011.5 1.6 65
2019-10-06 10:00:00 19.6 5 Noroeste 9 Norte 0 1011 1.5 77
2019-10-06 09:00:00 16.7 0 Calma 9 Noroeste 0 1010.1 0.8 91
2019-10-06 08:00:00 15.4 6 Noroeste -- -- 0 1009.9 0.7 94
2019-10-06 07:00:00 15.9 6 Oeste 11 Oeste 0 1009.5 0 93
2019-10-06 06:00:00 16.4 9 Noroeste 13 Noroeste 0 1009.3 -0.3 93
2019-10-06 05:00:00 17 5 Oeste 9 Oeste 0 1009.2 -0.4 92
2019-10-06 04:00:00 16.7 5 Oeste 9 Oeste 0 1009.5 -0.1 91
2019-10-06 03:00:00 17.5 2 Oeste 9 Oeste 0 1009.6 -0.2 90
2019-10-06 02:00:00 17.8 5 Oeste 9 Oeste 0 1009.6 -0.1 90
2019-10-06 01:00:00 18.2 0 Calma 11 Noroeste 0 1009.6 0.3 89
2019-10-06 00:00:00 18.9 10 Noroeste 13 Noroeste 0 1009.8 1 87
2019-10-05 23:00:00 20 6 Oeste 15 Sur 0 1009.7 1.3 85
2019-10-05 22:00:00 21.9 7 Norte 24 Nordeste 0 1009.3 1.2 82
2019-10-05 21:00:00 22.5 8 Nordeste 33 Norte 0 1008.8 0.9 80
2019-10-05 20:00:00 23 10 Este 26 Este 0 1008.4 0.8 73
2019-10-05 19:00:00 24.2 12 Este 22 Este 0 1008.1 0.5 65
2019-10-05 18:00:00 25.2 15 Sudeste 24 Este 0 1007.9 0.1 58
2019-10-05 17:00:00 25.6 17 Este 26 Este 0 1007.6 -0.6 60
2019-10-05 16:00:00 26.3 15 Este 28 Este 0 1007.6 -1.2 57
2019-10-05 15:00:00 26.7 19 Este 30 Este 0 1007.8 -1.3 55
2019-10-05 14:00:00 27.8 13 Sudeste 24 Sudeste 0 1008.2 -1 48
2019-10-05 13:00:00 27.5 8 Sudeste 18 Sudeste 0 1008.8 0 45
2019-10-05 12:00:00 26.7 4 Nordeste 11 Nordeste 0 1009.1 0.9 45
2019-10-05 11:00:00 23 8 Norte 17 Noroeste 0 1009.2 1.4 50
2019-10-05 10:00:00 20 9 Noroeste 17 Noroeste 0 1008.8 1.3 58
2019-10-05 09:00:00 16.7 13 Noroeste 18 Noroeste 0 1008.2 0.8 70
2019-10-05 08:00:00 14.9 10 Noroeste 13 Noroeste 0 1007.8 0.5 87
2019-10-05 07:00:00 15.3 9 Oeste 13 Oeste 0 1007.5 0.5 86
2019-10-05 06:00:00 15.8 6 Noroeste 11 Noroeste 0 1007.4 0.1 85
2019-10-05 05:00:00 15.8 9 Noroeste 11 Oeste 0 1007.3 0.5 88
2019-10-05 04:00:00 16.4 10 Oeste 15 Oeste 0 1007 0 86
2019-10-05 03:00:00 18.4 5 Noroeste 11 Noroeste 0 1007.3 0.1 75
2019-10-05 02:00:00 18.1 10 Sudoeste 11 Sudoeste 0 1006.8 -0.4 83
2019-10-05 01:00:00 18.2 5 Oeste 13 Noroeste 0 1007 -0.2 92
2019-10-05 00:00:00 19.1 10 Noroeste 13 Noroeste 0 1007.2 0.2 89
2019-10-04 23:00:00 20.4 8 Oeste 13 Oeste 0 1007.2 0.6 91
2019-10-04 22:00:00 22.5 9 Norte 26 Nordeste 0 1007.2 0.9 87
2019-10-04 21:00:00 23.1 9 Norte 35 Nordeste 0 1007 0.7 87
2019-10-04 20:00:00 24.3 9 Nordeste 17 Este 0 1006.6 0 76
2019-10-04 19:00:00 25.3 12 Este 24 Este 0 1006.3 -0.7 68
2019-10-04 18:00:00 26.8 17 Sudeste 28 Sudeste 0 1006.3 -1.3 46
2019-10-04 17:00:00 27.7 21 Sudeste 30 Este 0 1006.6 -2 42
2019-10-04 16:00:00 28.9 19 Sudeste 26 Este 0 1007 -2.6 35
2019-10-04 15:00:00 29.7 13 Sudeste 22 Sudeste 0 1007.6 -2.4 29
2019-10-04 14:00:00 30.4 8 Sudeste 17 Sudeste 0 1008.6 -1.6 25
2019-10-04 13:00:00 28.7 9 Sudeste 15 Sudeste 0 1009.6 -0.5 27
2019-10-04 12:00:00 26.2 4 Noroeste 15 Oeste 0 1010 0.5 34
2019-10-04 11:00:00 23.5 9 Sudoeste 15 Oeste 0 1010.2 0.8 39
2019-10-04 10:00:00 20 8 Oeste 18 Noroeste 0 1010.1 0.8 50
2019-10-04 09:00:00 16.9 12 Noroeste 18 Noroeste 0 1009.5 0.1 58
2019-10-04 08:00:00 13.5 11 Oeste 15 Oeste 0 1009.4 0.2 82
2019-10-04 07:00:00 14.1 11 Oeste 17 Noroeste 0 1009.3 -0.3 84
2019-10-04 06:00:00 15 13 Noroeste 17 Noroeste 0 1009.4 -0.4 79
2019-10-04 05:00:00 14.4 10 Noroeste 13 Oeste 0 1009.2 -0.7 88
2019-10-04 04:00:00 15 6 Oeste 13 Oeste 0 1009.6 -0.2 86
2019-10-04 03:00:00 16.2 10 Noroeste 18 Noroeste 0 1009.8 -0.1 80
2019-10-04 02:00:00 16.8 9 Noroeste 17 Noroeste 0 1009.9 0.3 80
2019-10-04 01:00:00 17.1 10 Noroeste 15 Noroeste 0 1009.8 0.2 80
2019-10-04 00:00:00 18.2 7 Noroeste 15 Noroeste 0 1009.9 0.9 79
2019-10-03 23:00:00 19.6 11 Noroeste 17 Noroeste 0 1009.6 1.3 76
2019-10-03 22:00:00 20.8 8 Norte 13 Norte 0 1009.6 1.6 71
2019-10-03 21:00:00 21.5 3 Este 9 Sudeste 0 1009 1.3 70
2019-10-03 20:00:00 22 9 Sudeste 18 Este 0 1008.3 0.6 66
2019-10-03 19:00:00 23.6 13 Sudeste 21 Este 0 1008 0 57
2019-10-03 18:00:00 24.6 16 Este 26 Sudeste 0 1007.7 -0.9 48
2019-10-03 17:00:00 25.8 21 Sudeste 32 Sudeste 0 1007.7 -1.6 40
2019-10-03 16:00:00 26.8 15 Sudeste 22 Sudeste 0 1008 -2.2 34
2019-10-03 15:00:00 27.5 5 Sudoeste 18 Sur 0 1008.6 -1.9 27
2019-10-03 14:00:00 26 4 Este 11 Este 0 1009.3 -1.2 30
2019-10-03 13:00:00 23.7 3 Sur 13 Sudoeste 0 1010.2 0.1 35
2019-10-03 12:00:00 21.9 9 Oeste 17 Oeste 0 1010.5 0.5 42
2019-10-03 11:00:00 20.1 9 Oeste 17 Oeste 0 1010.5 0.8 49
2019-10-03 10:00:00 18.4 9 Oeste 13 Sudoeste 0 1010.1 0.7 55
2019-10-03 09:00:00 15.8 11 Sudoeste 15 Sudoeste 0 1010 0.7 64
2019-10-03 08:00:00 14.3 11 Oeste 15 Oeste 0 1009.7 0.7 70
2019-10-03 07:00:00 14.7 12 Oeste 13 Oeste 0 1009.4 0.4 68
2019-10-03 06:00:00 15.5 8 Oeste 21 Oeste 0 1009.3 -0.1 64
2019-10-03 05:00:00 15.7 15 Oeste 18 Oeste 0 1009 -0.5 65
2019-10-03 04:00:00 17.3 11 Oeste 24 Noroeste 0 1009 -0.7 57
2019-10-03 03:00:00 19.4 17 Noroeste 28 Noroeste 0 1009.4 0 48
2019-10-03 02:00:00 19.5 14 Noroeste 32 Norte 0 1009.5 0.5 46
2019-10-03 01:00:00 21.6 21 Noroeste 33 Noroeste 0 1009.7 1.2 39
2019-10-03 00:00:00 22 15 Noroeste 45 Norte 0 1009.4 1.5 39
2019-10-02 23:00:00 23.8 32 Norte 50 Norte 0 1009 1.7 33
2019-10-02 22:00:00 24 21 Norte 30 Norte 0 1008.5 1.9 32
2019-10-02 21:00:00 23.4 2 Sur 11 Sudeste 0 1007.9 1.9 54
2019-10-02 20:00:00 24.4 8 Sudeste 24 Este 0 1007.3 1.7 53
2019-10-02 19:00:00 27.9 18 Norte 37 Norte 0 1006.6 0.9 29
2019-10-02 18:00:00 29.2 27 Norte 45 Norte 0 1006 -0.2 23
2019-10-02 17:00:00 29.7 26 Norte 41 Noroeste 0 1005.6 -1.2 21
2019-10-02 16:00:00 29.8 14 Noroeste 30 Norte 0 1005.7 -1.8 23
2019-10-02 15:00:00 28.9 16 Noroeste 28 Oeste 0 1006.2 -1.7 25
2019-10-02 14:00:00 27.9 7 Sudoeste 32 Oeste 0 1006.8 -1.2 27
2019-10-02 13:00:00 26.7 10 Noroeste 26 Oeste 0 1007.5 -0.1 31
2019-10-02 12:00:00 24.7 14 Noroeste 22 Noroeste 0 1007.9 1.1 36
2019-10-02 11:00:00 23.3 11 Noroeste 18 Noroeste 0 1008 2 43
2019-10-02 10:00:00 22.5 13 Noroeste 18 Noroeste 0 1007.6 2 45
2019-10-02 09:00:00 18.7 13 Oeste 18 Oeste 0 1006.8 1.6 59
2019-10-02 08:00:00 17.5 13 Oeste 26 Oeste 0 1006 1.3 62
2019-10-02 07:00:00 17.9 19 Oeste 24 Oeste 0 1005.6 1.1 60
2019-10-02 06:00:00 17.6 8 Sudoeste 15 Oeste 0 1005.2 0.5 63
2019-10-02 05:00:00 17.6 10 Sudoeste 13 Oeste 0 1004.7 0.6 66
2019-10-02 04:00:00 19.5 6 Sudoeste 9 Oeste 0 1004.5 0.7 56
2019-10-02 03:00:00 19 7 Oeste 11 Oeste 0 1004.7 1.2 63
2019-10-02 02:00:00 20.1 0 Calma 17 Oeste 0 1004.1 1.3 55
2019-10-02 01:00:00 20.9 14 Oeste 21 Oeste 0 1003.8 1.3 55
2019-10-02 00:00:00 20.8 13 Oeste 17 Oeste 0 1003.5 1.9 85
2019-10-01 23:00:00 21.7 12 Sudoeste 13 Sudoeste 0 1002.8 1.7 86
2019-10-01 22:00:00 23.3 5 Este 11 Este 0 1002.5 1.8 82
2019-10-01 21:00:00 24 6 Este 22 Nordeste 0 1001.6 1.3 81
2019-10-01 20:00:00 25.3 10 Este 18 Nordeste 0 1001.1 0.7 79
2019-10-01 19:00:00 26.8 15 Nordeste 35 Nordeste 0 1000.7 -0.1 74
2019-10-01 18:00:00 33.9 14 Este 35 Oeste 0 1000.3 -1.4 34
2019-10-01 17:00:00 -- 24 Oeste 37 Oeste 0 1000.4 -2.4 16
2019-10-01 16:00:00 34.9 17 Oeste 32 Oeste 0 1000.8 -2.9 20
2019-10-01 15:00:00 34 17 Sudoeste 28 Sudoeste 0 1001.7 -2.8 25
2019-10-01 14:00:00 32.5 6 Noroeste 15 Noroeste 0 1002.8 -2.2 33
2019-10-01 13:00:00 30.4 4 Norte 11 Este 0 1003.7 -1.3 41
2019-10-01 12:00:00 27.7 2 Este 9 Nordeste 0 1004.5 -0.4 56
2019-10-01 11:00:00 24.3 0 Calma 9 Oeste 0 1005 0.5 73
2019-10-01 10:00:00 21.3 6 Oeste 9 Sudoeste 0 1005 0.2 85
2019-10-01 09:00:00 18.4 6 Noroeste 8 Noroeste 0 1004.9 -0.3 95
2019-10-01 08:00:00 17.6 5 Noroeste 9 Norte 0 1004.5 -1.3 97
2019-10-01 07:00:00 17.9 4 Noroeste 11 Oeste 0 1004.8 -1.4 96
2019-10-01 06:00:00 18.3 6 Oeste 9 Oeste 0 1005.2 -2 95
2019-10-01 05:00:00 19 8 Oeste 11 Oeste 0 1005.8 -1.7 94
2019-10-01 04:00:00 20 4 Oeste 9 Oeste 0 1006.2 -1.7 95
2019-10-01 03:00:00 20.2 6 Oeste 9 Oeste 0 1007.2 -1.2 95
2019-10-01 02:00:00 20.7 5 Noroeste 9 Oeste 0 1007.5 -0.8 95
2019-10-01 01:00:00 21 6 Oeste 11 Sudoeste 0 1007.9 -0.4 93
2019-10-01 00:00:00 22 8 Sudoeste 13 Sudoeste 0 1008.4 0.3 91
2019-09-30 23:00:00 23 3 Este 11 Nordeste 0 1008.3 0.4 88
2019-09-30 22:00:00 23.4 5 Este 18 Nordeste 0 1008.3 0.5 87
2019-09-30 21:00:00 23.6 9 Este 15 Nordeste 0 1008.1 0.2 86
2019-09-30 20:00:00 24.2 12 Este 18 Este 0 1007.9 -0.4 82
2019-09-30 19:00:00 25.4 13 Este 26 Este 0 1007.8 -1 76
2019-09-30 18:00:00 26.3 14 Este 26 Nordeste 0 1007.9 -1.4 72
2019-09-30 17:00:00 27.1 15 Este 30 Este 0 1008.3 -1.8 66
2019-09-30 16:00:00 27.1 17 Este 28 Este 0 1008.8 -1.7 65
2019-09-30 15:00:00 27.2 19 Este 28 Este 0 1009.3 -1.3 65
2019-09-30 14:00:00 27.1 19 Este 30 Este 0 1010.1 -0.4 67
2019-09-30 13:00:00 27 17 Este 26 Este 0 1010.5 0.3 65
2019-09-30 12:00:00 26.5 13 Este 28 Este 0 1010.6 1.2 66
2019-09-30 11:00:00 25.1 11 Este 18 Este 0 1010.5 1.7 76
2019-09-30 10:00:00 22 2 Sudoeste 9 Sudoeste 0 1010.2 2 76
2019-09-30 09:00:00 17.7 7 Oeste 11 Noroeste 0 1009.4 1.5 74
2019-09-30 08:00:00 16.7 5 Noroeste 11 Nordeste 0 1008.8 1.1 73
2019-09-30 07:00:00 16.8 3 Norte 9 Norte 0 1008.2 0 74
2019-09-30 06:00:00 16.6 6 Oeste 9 Oeste 0 1007.9 -0.7 86
2019-09-30 05:00:00 17.1 6 Noroeste 13 Noroeste 0 1007.7 -0.9 91
2019-09-30 04:00:00 18.3 11 Oeste 17 Oeste 0 1008.2 -0.5 87
2019-09-30 03:00:00 18.3 10 Noroeste 15 Noroeste 0 1008.6 -0.1 90
2019-09-30 02:00:00 19 5 Oeste 9 Oeste 0 1008.6 0 88
2019-09-30 01:00:00 19.9 8 Sudoeste 11 Oeste 0 1008.7 0.4 84
2019-09-30 00:00:00 20.6 6 Oeste 9 Noroeste 0 1008.7 1.1 81
2019-09-29 23:00:00 21.5 7 Oeste 11 Oeste 0 1008.6 1.6 77
2019-09-29 22:00:00 23.1 4 Oeste 13 Norte 0 1008.3 1.4 69
2019-09-29 21:00:00 25.2 6 Norte 26 Nordeste 0 1007.6 0.5 63
2019-09-29 20:00:00 26.2 12 Nordeste 17 Nordeste 0 1007 -0.6 64
2019-09-29 19:00:00 29.3 12 Este 22 Este 0 1006.9 -1.1 49
2019-09-29 18:00:00 29.8 13 Sudeste 21 Este 0 1007.1 -1.5 49
2019-09-29 17:00:00 30.1 14 Sudeste 26 Este 0 1007.6 -1.8 52
2019-09-29 16:00:00 29.4 18 Este 28 Este 0 1008 -2.1 55
2019-09-29 15:00:00 29.5 20 Sudeste 28 Este 0 1008.6 -2 58
2019-09-29 14:00:00 30.7 12 Sudeste 21 Sudeste 0 1009.4 -1.6 48
2019-09-29 13:00:00 29.3 9 Sur 17 Sudoeste 0 1010.1 -0.7 48
2019-09-29 12:00:00 26.9 5 Sur 13 Sur 0 1010.6 0 58
2019-09-29 11:00:00 24.4 0 Calma 9 Oeste 0 1011 0.6 69
2019-09-29 10:00:00 21.1 5 Noroeste 17 Noroeste 0 1010.8 0.5 84
2019-09-29 09:00:00 18.5 8 Noroeste 13 Noroeste 0 1010.6 -0.1 94
2019-09-29 08:00:00 17.1 6 Oeste 11 Oeste 0 1010.4 -0.5 96
2019-09-29 07:00:00 17.4 8 Oeste 9 Sudoeste 0 1010.3 -1 95
2019-09-29 06:00:00 18.1 3 Oeste 8 Noroeste 0 1010.7 -1.1 97
2019-09-29 05:00:00 18.6 0 Calma 9 Noroeste 0 1010.9 -1 96
2019-09-29 04:00:00 19.1 2 Noroeste 9 Oeste 0 1011.3 -0.9 96
2019-09-29 03:00:00 19.5 5 Oeste 8 Oeste 0 1011.8 -0.5 95
2019-09-29 02:00:00 19.9 6 Oeste 8 Oeste 0 1011.9 -0.4 95
2019-09-29 01:00:00 20.6 5 Oeste 9 Oeste 0 1012.2 0 93
2019-09-29 00:00:00 21.2 5 Oeste 8 Oeste 0 1012.3 0.3 91
2019-09-28 23:00:00 23 6 Nordeste 21 Norte 0 1012.3 0.5 88
2019-09-28 22:00:00 23.3 6 Este 26 Norte 0 1012.2 0.3 87
2019-09-28 21:00:00 23.6 9 Este 26 Nordeste 0 1012 0.1 83
2019-09-28 20:00:00 24.4 10 Nordeste 26 Nordeste 0 1011.8 -0.2 77
2019-09-28 19:00:00 26 12 Este 18 Este 0 1011.9 -0.5 69
2019-09-28 18:00:00 26.8 14 Este 24 Nordeste 0 1011.9 -0.9 65
2019-09-28 17:00:00 26.9 15 Este 28 Este 0 1012 -1.3 65
2019-09-28 16:00:00 27.6 15 Este 28 Este 0 1012.4 -1.3 62
2019-09-28 15:00:00 26.6 15 Este 30 Este 0 1012.8 -1.2 67
2019-09-28 14:00:00 27.9 19 Este 28 Este 0 1013.3 -0.8 62
2019-09-28 13:00:00 27.1 12 Este 21 Este 0 1013.7 0.1 65
2019-09-28 12:00:00 26.3 6 Norte 13 Norte 0 1014 1.3 59
2019-09-28 11:00:00 24.4 3 Noroeste 13 Noroeste 0 1014.1 2.2 65
2019-09-28 10:00:00 21 9 Noroeste 15 Noroeste 0 1013.6 2.3 69
2019-09-28 09:00:00 18.7 9 Noroeste 11 Oeste 0 1012.7 1.5 81
2019-09-28 08:00:00 17.3 6 Oeste 9 Oeste 0 1011.9 1 92
2019-09-28 07:00:00 17.5 4 Oeste 11 Oeste 0 1011.3 0.6 92
2019-09-28 06:00:00 18.4 8 Oeste 15 Oeste 0 1011.2 0.2 90
2019-09-28 05:00:00 18.6 8 Noroeste 13 Noroeste 0 1010.9 0 92
2019-09-28 04:00:00 18.3 8 Oeste 11 Oeste 0 1010.7 -0.3 92
2019-09-28 03:00:00 19 5 Oeste 9 Oeste 0 1011 -0.1 91
2019-09-28 02:00:00 19.6 8 Noroeste 11 Noroeste 0 1010.9 0.2 91
2019-09-28 01:00:00 20.1 4 Oeste 9 Oeste 0 1011 0.7 89
2019-09-28 00:00:00 20.9 10 Oeste 11 Oeste 0 1011.1 1.4 87
2019-09-27 23:00:00 23 3 Noroeste 17 Este 0 1010.7 1.6 81
2019-09-27 22:00:00 23.6 5 Nordeste 26 Norte 0 1010.3 1.7 78
2019-09-27 21:00:00 24.3 12 Nordeste 28 Norte 0 1009.7 1.4 71
2019-09-27 20:00:00 25.3 16 Nordeste 28 Nordeste 0 1009.1 0.6 69
2019-09-27 19:00:00 26.8 16 Nordeste 24 Este 0 1008.6 0.1 59
2019-09-27 18:00:00 27.6 18 Este 30 Este 0 1008.3 -0.9 57
2019-09-27 17:00:00 27.9 21 Este 33 Este 0 1008.5 -1.1 67
2019-09-27 16:00:00 29.1 16 Este 24 Este 0 1008.5 -1.5 58
2019-09-27 15:00:00 29.2 16 Este 26 Este 0 1009.2 -1.3 59
2019-09-27 14:00:00 29.8 12 Este 21 Este 0 1009.6 -1.3 53
2019-09-27 13:00:00 29.5 9 Este 17 Este 0 1010 -0.9 52
2019-09-27 12:00:00 27.3 6 Este 13 Este 0 1010.5 -0.1 58
2019-09-27 11:00:00 25.6 3 Sudeste 8 Sur 0 1010.9 0.5 68
2019-09-27 10:00:00 22.3 5 Oeste 8 Oeste 0 1010.9 0.8 81
2019-09-27 09:00:00 19.8 0 Calma 8 Oeste 0 1010.6 0.5 92
2019-09-27 08:00:00 18.1 6 Oeste -- -- 0 1010.4 0.3 96
2019-09-27 07:00:00 18.6 -- -- -- -- 0 1010.1 -0.5 96
2019-09-27 06:00:00 18.9 6 Oeste -- -- 0 1010.1 -0.7 96
2019-09-27 05:00:00 19.3 5 Oeste -- -- 0 1010.1 -1 96
2019-09-27 04:00:00 19.7 4 Oeste 8 Oeste 0 1010.6 -0.8 96
2019-09-27 03:00:00 20.3 5 Oeste 8 Oeste 0 1010.8 -0.6 94
2019-09-27 02:00:00 21 4 Oeste 9 Noroeste 0 1011.1 -0.1 94
2019-09-27 01:00:00 21.3 7 Noroeste 9 Noroeste 0 1011.4 0.4 93
2019-09-27 00:00:00 22.4 7 Noroeste 13 Norte 0 1011.4 0.9 91
2019-09-26 23:00:00 23.3 9 Norte 17 Norte 0 1011.2 1.1 88
2019-09-26 22:00:00 23.7 9 Norte 28 Norte 0 1011 1.1 89
2019-09-26 21:00:00 24.3 10 Norte 21 Nordeste 0 1010.5 0.7 86
2019-09-26 20:00:00 24.6 9 Este 18 Este 0 1010.1 0.1 83
2019-09-26 19:00:00 25.5 14 Este 26 Este 0 1009.9 -0.3 79
2019-09-26 18:00:00 26.3 19 Sudeste 28 Sudeste 0 1009.8 -0.7 71
2019-09-26 17:00:00 27.2 21 Sudeste 32 Este 0 1010 -1.3 63
2019-09-26 16:00:00 27.6 21 Sudeste 32 Sudeste 0 1010.2 -1.8 61
2019-09-26 15:00:00 28.9 17 Sudeste 30 Sudeste 0 1010.5 -2.2 54
2019-09-26 14:00:00 28.6 8 Este 22 Este 0 1011.3 -1.6 53
2019-09-26 13:00:00 27.4 4 Oeste 17 Sudoeste 0 1012 -0.6 56
2019-09-26 12:00:00 26.1 8 Sudoeste 17 Sudoeste 0 1012.7 0.7 61
2019-09-26 11:00:00 24.5 7 Oeste 15 Noroeste 0 1012.9 1.4 59
2019-09-26 10:00:00 22 12 Noroeste 21 Noroeste 0 1012.6 1.5 66
2019-09-26 09:00:00 19.8 8 Oeste 13 Oeste 0 1012 1.1 86
2019-09-26 08:00:00 18 6 Oeste 11 Oeste 0 1011.5 0.8 94
2019-09-26 07:00:00 18.4 7 Oeste 9 Oeste 0 1011.1 0.7 94
2019-09-26 06:00:00 18.7 4 Oeste 9 Oeste 0 1010.9 0.3 94
2019-09-26 05:00:00 19.2 4 Oeste 13 Noroeste 0 1010.7 -0.1 93
2019-09-26 04:00:00 19.7 5 Oeste 8 Noroeste 0 1010.4 -0.3 92
2019-09-26 03:00:00 20.4 6 Oeste 11 Noroeste 0 1010.6 -0.1 89
2019-09-26 02:00:00 20.8 8 Noroeste 9 Noroeste 0 1010.8 0.5 88
2019-09-26 01:00:00 21.3 8 Noroeste -- -- 0 1010.7 0.5 87
2019-09-26 00:00:00 21.9 5 Noroeste 9 Noroeste 0 1010.7 1.3 84
2019-09-25 23:00:00 22.8 3 Oeste 5 Oeste 0 1010.3 1.4 79
2019-09-25 22:00:00 23.2 5 Sudeste 13 Este 0 1010.2 1.7 77
2019-09-25 21:00:00 23.5 10 Este 18 Nordeste 0 1009.4 1.4 78
2019-09-25 20:00:00 24.1 12 Este 21 Este 0 1008.9 1 69
2019-09-25 19:00:00 25 15 Este 28 Este 0 1008.5 0.6 64
2019-09-25 18:00:00 26.1 18 Este 30 Este 0 1008 -0.1 61
2019-09-25 17:00:00 26.8 18 Este 33 Este 0 1007.9 -0.4 53
2019-09-25 16:00:00 26.8 22 Este 35 Este 0 1007.9 -0.7 56
2019-09-25 15:00:00 27.2 19 Este 35 Este 0 1008.1 -0.7 60
2019-09-25 14:00:00 28.1 20 Este 37 Este 0 1008.3 -0.4 59
2019-09-25 13:00:00 28.4 18 Este 28 Sudeste 0 1008.6 0.6 45
2019-09-25 12:00:00 29 5 Sur 18 Sudeste 0 1008.8 1.4 42
2019-09-25 11:00:00 27.6 8 Oeste 18 Noroeste 0 1008.7 2.1 46
2019-09-25 10:00:00 25.3 14 Noroeste 26 Noroeste 0 1008 1.8 54
2019-09-25 09:00:00 22.9 6 Norte 22 Oeste 0 1007.4 1.2 64
2019-09-25 08:00:00 20.3 14 Sudoeste 21 Oeste 0 1006.6 0.6 73
2019-09-25 07:00:00 20.7 5 Oeste 18 Sudoeste 0 1006.2 0 69
2019-09-25 06:00:00 22.1 10 Sudoeste 24 Sudoeste 0 1006.2 -0.3 61
2019-09-25 05:00:00 23.1 19 Sudoeste 26 Sudoeste 0 1006 -0.2 54
2019-09-25 04:00:00 22.6 17 Oeste 21 Oeste 0 1006.2 -0.2 51
2019-09-25 03:00:00 23.3 15 Oeste 22 Oeste 0 1006.5 -0.1 45
2019-09-25 02:00:00 23.6 16 Oeste 26 Oeste 0 1006.2 -0.3 44
2019-09-25 01:00:00 24.2 6 Noroeste 26 Sudoeste 0 1006.4 0 42
2019-09-25 00:00:00 25.4 19 Oeste 28 Oeste 0 1006.6 0.9 37
2019-09-24 23:00:00 26.5 17 Oeste 26 Oeste 0 1006.5 1.2 34
2019-09-24 22:00:00 28.3 13 Oeste 28 Sudoeste 0 1006.4 1.3 29
2019-09-24 21:00:00 28.4 16 Sudoeste 30 Sudoeste 0 1005.7 0.7 29
2019-09-24 20:00:00 30.7 23 Sudoeste 33 Sudoeste 0 1005.3 -0.1 25
2019-09-24 19:00:00 33.1 26 Sudoeste 42 Oeste 0 1005.1 -0.7 22
2019-09-24 18:00:00 34.3 30 Sudoeste 42 Oeste 0 1005 -1.7 21
2019-09-24 17:00:00 34.9 26 Sudoeste 39 Sudoeste 0 1005.4 -2.3 20
2019-09-24 16:00:00 34.6 27 Sudoeste 39 Sudoeste 0 1005.8 -3 21
2019-09-24 15:00:00 33.9 27 Sudoeste 41 Sudoeste 0 1006.7 -2.6 22
2019-09-24 14:00:00 31 17 Sudoeste 28 Oeste 0 1007.7 -2.2 29
2019-09-24 13:00:00 30.4 15 Sudoeste 26 Sudoeste 0 1008.8 -1.1 30
2019-09-24 12:00:00 29.3 15 Sudoeste 26 Sudoeste 0 1009.3 -0.4 32
2019-09-24 11:00:00 26.3 15 Sudoeste 21 Sudoeste 0 1009.9 0.4 43
2019-09-24 10:00:00 21.8 3 Oeste 13 Oeste 0 1009.9 0.6 70
2019-09-24 09:00:00 18.3 7 Oeste 13 Noroeste 0 1009.7 0.4 85
2019-09-24 08:00:00 16.3 10 Noroeste 13 Noroeste 0 1009.5 -0.3 91
2019-09-24 07:00:00 16.4 9 Oeste 15 Noroeste 0 1009.3 -0.9 93
2019-09-24 06:00:00 16.8 5 Oeste 9 Oeste 0 1009.3 -1.5 92
2019-09-24 05:00:00 17.5 0 Calma 9 Oeste 0 1009.8 -1.4 91
2019-09-24 04:00:00 18.2 5 Sudoeste 13 Oeste 0 1010.2 -1.1 91
2019-09-24 03:00:00 18.4 9 Noroeste 11 Noroeste 0 1010.8 -0.9 92
2019-09-24 02:00:00 19.6 4 Sudoeste 11 Noroeste 0 1011.2 -0.8 87
2019-09-24 01:00:00 20.1 6 Noroeste 13 Noroeste 0 1011.3 -0.5 87
2019-09-24 00:00:00 21.1 10 Noroeste 13 Noroeste 0 1011.7 0.1 83
2019-09-23 23:00:00 22.1 7 Noroeste 9 Noroeste 0 1012 0.8 79
2019-09-23 22:00:00 23 3 Sur 9 Sudeste 0 1011.8 1 72
2019-09-23 21:00:00 23.1 6 Sudeste 15 Sudeste 0 1011.6 0.8 74
2019-09-23 20:00:00 23.8 12 Sudeste 21 Sur 0 1011.2 0.4 71
2019-09-23 19:00:00 24.8 13 Sudeste 24 Sudeste 0 1010.8 0 60
2019-09-23 18:00:00 26.4 14 Sudeste 22 Sudeste 0 1010.8 -0.6 52
2019-09-23 17:00:00 26.7 13 Sudeste 24 Sudeste 0 1010.8 -0.9 46
2019-09-23 16:00:00 27.4 14 Sudeste 24 Sudeste 0 1010.8 -1.7 40
2019-09-23 15:00:00 27.3 11 Este 22 Este 0 1011.4 -1.5 38
2019-09-23 14:00:00 27.3 12 Sudeste 22 Este 0 1011.7 -1.3 35
2019-09-23 13:00:00 27 7 Este 17 Este 0 1012.5 -0.1 34
2019-09-23 12:00:00 26.5 5 Este 11 Este 0 1012.9 0.9 36
2019-09-23 11:00:00 24 3 Noroeste 13 Oeste 0 1013 1.5 46
2019-09-23 10:00:00 21.4 5 Oeste 15 Oeste 0 1012.6 1.8 51
2019-09-23 09:00:00 18.5 8 Oeste 11 Oeste 0 1012 2 67
2019-09-23 08:00:00 16.5 6 Oeste 11 Oeste 0 1011.5 2 72
2019-09-23 07:00:00 17.2 8 Oeste 9 Oeste 0 1010.8 1.2 69
2019-09-23 06:00:00 17.9 6 Oeste 13 Oeste 0 1010 0.6 62
2019-09-23 05:00:00 18.3 5 Oeste 11 Oeste 0 1009.5 0.4 63
2019-09-23 04:00:00 18.9 6 Oeste 22 Oeste 0 1009.6 0.7 61
2019-09-23 03:00:00 20.3 11 Noroeste 21 Noroeste 0 1009.4 1 58
2019-09-23 02:00:00 21.2 8 Oeste 15 Norte 0 1009.1 1.4 57
2019-09-23 01:00:00 21.8 4 Sudoeste 22 Oeste 0 1008.9 2.3 58
2019-09-23 00:00:00 22.4 11 Oeste 21 Oeste 0 1008.4 2.5 58
2019-09-22 23:00:00 23.8 9 Oeste 24 Oeste 0 1007.7 2.6 53
2019-09-22 22:00:00 25.4 18 Oeste 28 Oeste 0 1006.6 2.3 49
2019-09-22 21:00:00 26 11 Oeste 33 Oeste 0 1005.9 1.9 53
2019-09-22 20:00:00 28.1 26 Oeste 42 Oeste 0 1005.1 1.1 43
2019-09-22 19:00:00 30.1 22 Oeste 30 Oeste 0 1004.3 0.1 40
2019-09-22 18:00:00 30.7 23 Oeste 35 Oeste 0 1004 -0.3 37
2019-09-22 17:00:00 31.4 22 Oeste 33 Sudoeste 0 1004 -0.7 37
2019-09-22 16:00:00 31.5 19 Oeste 46 Oeste 0 1004.2 -1.1 38
2019-09-22 15:00:00 30.8 30 Sudoeste 42 Sudoeste 0 1004.3 -1.3 40
2019-09-22 14:00:00 29.9 26 Oeste 41 Oeste 0 1004.7 -1.1 42
2019-09-22 13:00:00 29.1 22 Sudoeste 41 Oeste 0 1005.3 -0.6 43
2019-09-22 12:00:00 27.5 15 Sudoeste 26 Oeste 0 1005.6 0.3 49
2019-09-22 11:00:00 26.1 15 Oeste 26 Noroeste 0 1005.8 0.5 54
2019-09-22 10:00:00 24.8 12 Oeste 28 Oeste 0 1005.9 1.3 60
2019-09-22 09:00:00 21.2 15 Oeste 26 Oeste 0 1005.3 0.9 79
2019-09-22 08:00:00 20.8 8 Oeste 15 Sudoeste 0 1005.3 -- 86
2019-09-22 07:00:00 21.1 3 Oeste 11 Oeste 0 1004.6 -0.3 95
2019-09-22 06:00:00 21.2 3 Oeste 5 Oeste 0 1004.4 -1 97
2019-09-22 05:00:00 21.9 -- -- 8 Sudoeste 0 -- -- 96
2019-09-22 04:00:00 22.4 0 Calma 5 Sudoeste 0 1004.9 -0.5 94
2019-09-22 03:00:00 23.3 0 Calma 8 Nordeste 0 1005.4 0 92
2019-09-22 02:00:00 23.3 0 Calma 13 Nordeste 0 1005.4 0.4 92
2019-09-22 01:00:00 23.5 9 Nordeste 17 Este 0 1005.4 0.4 92
2019-09-22 00:00:00 23.9 12 Este 21 Este 0 1005.4 0.7 90
2019-09-21 23:00:00 24.6 9 Norte 24 Nordeste 0 1005 0.7 81
2019-09-21 22:00:00 24.6 8 Este 13 Este 0 1005 0.9 83
2019-09-21 21:00:00 24.8 7 Sudeste 13 Sudeste 0 1004.7 1 82
2019-09-21 20:00:00 25.4 11 Sudeste 18 Sudeste 0 1004.3 0.5 75
2019-09-21 19:00:00 26.5 15 Sudeste 22 Sudeste 0 1004.1 -0.2 70
2019-09-21 18:00:00 27.7 12 Sudeste 24 Sur 0 1003.7 -1.4 63
2019-09-21 17:00:00 28.2 11 Sudeste 22 Sudeste 0 1003.8 -1.8 58
2019-09-21 16:00:00 28.9 6 Sudeste 18 Sudeste 0 1004.3 -2 55
2019-09-21 15:00:00 27.8 11 Sudeste 24 Sudeste 0 1005.1 -1.7 57
2019-09-21 14:00:00 28.7 10 Sudeste 21 Nordeste 0 1005.6 -1.3 49
2019-09-21 13:00:00 27.4 8 Este 17 Este 0 1006.3 -0.1 53
2019-09-21 12:00:00 26.6 4 Sudoeste 15 Norte 0 1006.8 0.4 54
2019-09-21 11:00:00 23.5 9 Norte 21 Noroeste 0 1006.9 0.3 68
2019-09-21 10:00:00 23.2 6 Oeste 13 Oeste 0 1006.4 -0.2 80
2019-09-21 09:00:00 21.2 6 Norte 21 Noroeste 0 1006.4 0 88
2019-09-21 08:00:00 20.8 10 Noroeste 15 Norte 0.2 1006.6 -0.2 93
2019-09-21 07:00:00 21 12 Noroeste 18 Noroeste 0 1006.6 -0.6 93
2019-09-21 06:00:00 20.8 10 Noroeste 15 Norte 0 1006.4 -1.4 94
2019-09-21 05:00:00 21.6 10 Noroeste 13 Norte 0 1006.8 -1 90
2019-09-21 04:00:00 22.2 10 Nordeste 17 Nordeste 0 1007.2 -0.9 86
2019-09-21 03:00:00 22.5 10 Este 21 Nordeste 0 1007.8 -0.2 87
2019-09-21 02:00:00 22.5 13 Este 24 Este 0 1007.8 -0.7 87
2019-09-21 01:00:00 23.1 11 Este 26 Este 0 1008.1 -1.2 88
2019-09-21 00:00:00 23.2 15 Este 26 Nordeste 0 1008 -0.7 89
2019-09-20 23:00:00 23.3 13 Este 21 Este 0 1008.5 -0.2 88
2019-09-20 22:00:00 23.4 11 Este 24 Este 0 1009.3 0.5 87
2019-09-20 21:00:00 23.5 13 Este 30 Este 0 1008.7 -0.2 87
2019-09-20 20:00:00 24 13 Este 26 Este 0 1008.7 -0.5 80
2019-09-20 19:00:00 24.6 16 Este 26 Este 0 1008.8 -0.8 78
2019-09-20 18:00:00 25.1 19 Este 32 Este 0 1008.9 -1.2 77
2019-09-20 17:00:00 25.8 22 Este 32 Este 0 1009.2 -1.2 72
2019-09-20 16:00:00 26.5 23 Este 32 Este 0 1009.6 -0.7 69
2019-09-20 15:00:00 26.4 21 Este 32 Este 0 1010.1 -0.7 69
2019-09-20 14:00:00 25.3 20 Este 30 Este 0 1010.4 -0.8 74
2019-09-20 13:00:00 26 18 Este 28 Este 0 1010.3 -1 69
2019-09-20 12:00:00 25.1 16 Este 26 Este 0 1010.8 -0.5 70
2019-09-20 11:00:00 23.4 7 Norte 17 Noroeste 0 1011.2 0.3 82
2019-09-20 10:00:00 21.9 9 Noroeste 18 Noroeste 0 1011.3 1.1 90
2019-09-20 09:00:00 20.6 8 Noroeste 15 Noroeste 0 1011.3 1 95
2019-09-20 08:00:00 20.4 8 Noroeste 13 Noroeste 0 1010.9 0.5 96
2019-09-20 07:00:00 20.3 9 Noroeste 17 Noroeste 0 1010.2 -0.6 95
2019-09-20 06:00:00 20.4 6 Norte 9 Noroeste 0 1010.3 -0.6 95
2019-09-20 05:00:00 20.8 5 Noroeste 11 Norte 0 1010.4 -0.5 94
2019-09-20 04:00:00 21.7 5 Nordeste 9 Nordeste 0 1010.8 -0.3 91
2019-09-20 03:00:00 21.9 0 Calma 11 Nordeste 0 1010.9 -0.3 90
2019-09-20 02:00:00 22.3 6 Nordeste 11 Norte 0 1010.9 -0.2 89
2019-09-20 01:00:00 22.6 6 Norte 9 Nordeste 0 1011.1 0.3 87
2019-09-20 00:00:00 22.8 7 Norte 9 Norte 0 1011.2 1.2 88
2019-09-19 23:00:00 22.9 4 Este 15 Este 0 1011.1 1.5 86
2019-09-19 22:00:00 23.2 7 Este 22 Este 0 1010.8 1.6 84
2019-09-19 21:00:00 23.4 9 Este 21 Nordeste 0 1010 1 84
2019-09-19 20:00:00 23.9 11 Este 26 Este 0 1009.6 0.7 80
2019-09-19 19:00:00 24.7 12 Este 22 Este 0 1009.2 0.2 77
2019-09-19 18:00:00 25.3 16 Este 28 Este 0 1009 -0.6 73
2019-09-19 17:00:00 26.5 15 Este 26 Este 0 1008.9 -1.2 63
2019-09-19 16:00:00 27 16 Este 33 Este 0 1009 -1.4 62
2019-09-19 15:00:00 27.2 15 Este 30 Este 0 1009.6 -0.8 62
2019-09-19 14:00:00 26.8 15 Este 30 Nordeste 0 1010.1 -0.3 63
2019-09-19 13:00:00 26.8 13 Este 24 Este 0 1010.4 0.2 65
2019-09-19 12:00:00 26.4 13 Este 24 Este 0 1010.4 0.6 57
2019-09-19 11:00:00 25.3 3 Norte 15 Norte 0 1010.4 1 57
2019-09-19 10:00:00 22.2 7 Noroeste 11 Noroeste 0 1010.2 1 71
2019-09-19 09:00:00 19.4 5 Sudoeste 9 Noroeste 0 1009.8 0.8 82
2019-09-19 08:00:00 17.8 6 Noroeste 11 Oeste 0 1009.4 0.6 90
2019-09-19 07:00:00 18 8 Oeste 11 Oeste 0 1009.2 0.2 89
2019-09-19 06:00:00 19.2 6 Norte 13 Norte 0 1009 0 84
2019-09-19 05:00:00 19.1 8 Oeste 11 Oeste 0 1008.8 -0.4 88
2019-09-19 04:00:00 19 0 Calma 13 Oeste 0 1009 -0.2 88
2019-09-19 03:00:00 19.4 3 Oeste 9 Oeste 0 1009 -0.3 86
2019-09-19 02:00:00 19.7 5 Oeste 11 Noroeste 0 1009.2 0 88
2019-09-19 01:00:00 20.2 9 Noroeste 11 Noroeste 0 1009.2 0.2 87
2019-09-19 00:00:00 21.1 4 Oeste 11 Oeste 0 1009.3 0.8 85
2019-09-18 23:00:00 21.9 8 Oeste 9 Oeste 0 1009.2 1.3 82
2019-09-18 22:00:00 24.1 5 Este 15 Nordeste 0 1009 2.1 68
2019-09-18 21:00:00 24.4 4 Este 22 Nordeste 0 1008.5 1.7 67
2019-09-18 20:00:00 25 15 Nordeste 24 Nordeste 0 1007.9 1.2 71
2019-09-18 19:00:00 27.3 14 Sudeste 21 Sudeste 0 1006.9 -0.3 54
2019-09-18 18:00:00 28.7 18 Sudeste 24 Sudeste 0 1006.8 -0.9 50
2019-09-18 17:00:00 29.2 15 Sudeste 30 Sudeste 0 1006.7 -1.3 46
2019-09-18 16:00:00 30 14 Sudeste 24 Este 0 1007.2 -1.1 45
2019-09-18 15:00:00 30.1 15 Sudeste 26 Nordeste 0 1007.7 -0.7 41
2019-09-18 14:00:00 29.9 10 Este 26 Nordeste 0 1008 -0.3 40
2019-09-18 13:00:00 29.2 6 Este 21 Nordeste 0 1008.3 0.5 40
2019-09-18 12:00:00 27.9 6 Sudeste 15 Sudeste 0 1008.4 1.1 48
2019-09-18 11:00:00 27 7 Este 13 Sudeste 0 1008.3 1.2 49
2019-09-18 10:00:00 23.7 5 Oeste 13 Oeste 0 1007.8 1 62
2019-09-18 09:00:00 20.3 6 Oeste 13 Noroeste 0 1007.3 0.6 80
2019-09-18 08:00:00 18.2 6 Oeste 11 Oeste 0 1007.1 0.2 85
2019-09-18 07:00:00 18.2 11 Oeste 17 Oeste 0 1006.8 -0.1 85
2019-09-18 06:00:00 18.5 9 Oeste 13 Oeste 0 1006.7 -1.1 84
2019-09-18 05:00:00 18.6 8 Oeste 11 Oeste 0 1006.9 -1.1 86
2019-09-18 04:00:00 19.5 9 Oeste 17 Noroeste 0 1006.9 -1 81
2019-09-18 03:00:00 19.9 5 Oeste 13 Oeste 0 1007.8 -0.4 81
2019-09-18 02:00:00 20.5 4 Noroeste 15 Noroeste 0 1008 0 78
2019-09-18 01:00:00 20.9 12 Noroeste 17 Noroeste 0 1007.9 -0.5 74
2019-09-18 00:00:00 22.5 5 Sur 13 Sudoeste 0 1008.2 0.4 68
2019-09-17 23:00:00 23.1 4 Oeste 24 Oeste 0 1008 0.4 66
2019-09-17 22:00:00 23.5 14 Noroeste 32 Noroeste 0 1008.4 1 77
2019-09-17 21:00:00 24.1 0 Calma 8 Nordeste 0 1007.8 0.8 81
2019-09-15 18:00:00 25.9 28 Nordeste 41 Nordeste 0 1011.5 -1.4 73
2019-09-15 17:00:00 26.6 28 Este 37 Este 0 1011.6 -1.7 71
2019-09-15 16:00:00 26.8 26 Nordeste 39 Nordeste 0 1012.1 -1.4 68
2019-09-15 15:00:00 26.3 22 Nordeste 39 Nordeste 0 1012.9 -0.4 67
2019-09-15 14:00:00 27 23 Nordeste 35 Este 0 1013.3 -0.1 61
2019-09-15 13:00:00 25.9 27 Nordeste 42 Nordeste 0 1013.5 0.3 63
2019-09-15 12:00:00 25.5 28 Nordeste 45 Nordeste 0 1013.3 0.5 65
2019-09-15 11:00:00 24 30 Nordeste 45 Nordeste 0 1013.4 0.4 71
2019-09-15 10:00:00 23.3 25 Nordeste 42 Nordeste 0 1013.2 0.5 77
2019-09-15 09:00:00 22.8 23 Nordeste 35 Nordeste 0 1012.8 0.3 75
2019-09-15 08:00:00 22.4 17 Nordeste 28 Nordeste 0 1013 0.3 75
2019-09-15 07:00:00 22.3 12 Norte 22 Nordeste 0 1012.7 -0.6 71
2019-09-15 06:00:00 22.3 10 Norte 28 Nordeste 0 1012.5 -1.9 73
2019-09-15 05:00:00 22.5 18 Nordeste 35 Nordeste 0 1012.7 -2.3 74
2019-09-15 04:00:00 22.6 15 Nordeste 28 Nordeste 0 1013.3 -1.6 74
2019-09-15 03:00:00 22.8 14 Nordeste 30 Nordeste 0 1014.4 -0.4 66
2019-09-15 02:00:00 22.8 16 Nordeste 26 Norte 0 1015 -0.4 68
2019-09-15 01:00:00 22.6 8 Este 18 Nordeste 0 1014.9 -0.3 73
2019-09-15 00:00:00 22.8 11 Norte 26 Nordeste 0 1014.8 0.7 79